ADDS METAR Data INFO
IDs: Format: Raw Decoded Include TAF

Data at: 2050 UTC 24 Jun 2018

KELA 242035Z AUTO 17013G20KT 10SM SCT041 SCT060 34/24 A2989 RMK AO2 T03360243
KELA 242015Z AUTO 16014G20KT 10SM SCT042 SCT048 SCT060 34/24 A2989 RMK AO2 T03360239
KELA 241955Z AUTO 18016G20KT 10SM CLR 34/25 A2990 RMK AO2 T03370245
KELA 241935Z AUTO 17015G22KT 10SM CLR 33/25 A2990 RMK AO2 T03330247
KELA 241915Z AUTO 17012G20KT 10SM SCT030 SCT037 SCT050 33/25 A2990 RMK AO2 T03340252
KELA 241855Z AUTO 18012G19KT 10SM SCT037 SCT043 BKN050 33/24 A2991 RMK AO2 T03330239
KELA 241835Z AUTO 17013G19KT 10SM BKN035 BKN043 BKN050 33/24 A2991 RMK AO2 T03250243
KELA 241815Z AUTO 18011G18KT 10SM SCT035 SCT042 33/25 A2991 RMK AO2 T03330248
KELA 241755Z AUTO 18014G18KT 10SM SCT035 SCT046 33/24 A2992 RMK AO2 T03310241 10332 20252
KELA 241735Z AUTO 17013G19KT 10SM BKN033 BKN046 33/24 A2992 RMK AO2 T03280243
KELA 241715Z AUTO 16011G17KT 10SM SCT034 BKN047 32/25 A2991 RMK AO2 T03230250
KELA 241655Z AUTO 19014G18KT 10SM SCT034 33/25 A2991 RMK AO2 T03290246
KELA 241635Z AUTO 20013KT 10SM SCT032 SCT038 32/25 A2990 RMK AO2 T03230245
KELA 241615Z AUTO 18011G18KT 10SM BKN032 32/24 A2989 RMK AO2 T03200240
KELA 241555Z AUTO 20014G19KT 10SM SCT034 31/24 A2989 RMK AO2 T03120243
KELA 241535Z AUTO 19014KT 10SM SCT026 31/25 A2989 RMK AO2 T03120245
KELA 241515Z AUTO 19010G20KT 10SM SCT026 31/24 A2989 RMK AO2 T03140241
KELA 241455Z AUTO 20011G22KT 10SM CLR 31/25 A2988 RMK AO2 T03100248
KELA 241435Z AUTO 18012G23KT 10SM SCT019 SCT029 30/25 A2988 RMK AO2 T03030250
KELA 241415Z AUTO 18015G23KT 10SM BKN017 BKN023 30/25 A2988 RMK AO2 LTG DSNT S T02960253
KELA 241355Z AUTO 19011G17KT 10SM SCT010 OVC014 29/26 A2988 RMK AO2 T02860260
KELA 241335Z AUTO 19009KT 10SM SCT008 BKN013 OVC021 28/26 A2988 RMK AO2 T02770262
KELA 241315Z AUTO 18005KT 7SM BKN015 OVC022 27/26 A2988 RMK AO2 T02650259
KELA 241255Z AUTO 17004KT 5SM BR BKN017 BKN022 OVC027 26/26 A2988 RMK AO2 T02600256
KELA 241235Z AUTO 00000KT 4SM BR BKN015 BKN022 OVC027 26/25 A2988 RMK AO2 LTG DSNT S T02570254
KELA 241215Z AUTO 00000KT 4SM BR SCT024 BKN032 26/25 A2988 RMK AO2 T02550253
KELA 241155Z AUTO 00000KT 4SM BR SCT016 SCT028 25/25 A2987 RMK AO2 T02520250 10267 20252
KELA 241135Z AUTO 16003KT 4SM BR CLR 25/25 A2988 RMK AO2 T02520250
KELA 241115Z AUTO 17003KT 5SM BR SCT019 SCT028 26/25 A2988 RMK AO2 T02550251
KELA 241055Z AUTO 15005KT 7SM SCT017 BKN024 BKN030 26/25 A2988 RMK AO2 T02550251
KELA 241035Z AUTO 00000KT 7SM SCT015 SCT019 SCT027 26/25 A2988 RMK AO2 T02550252
KELA 241015Z AUTO 15003KT 7SM OVC015 26/25 A2988 RMK AO2 T02560252
KELA 240955Z AUTO 00000KT 7SM OVC015 26/25 A2988 RMK AO2 T02590254
KELA 240935Z AUTO 00000KT 7SM OVC015 26/26 A2989 RMK AO2 T02600255
KELA 240915Z AUTO 00000KT 10SM OVC013 26/26 A2988 RMK AO2 T02620256
KELA 240855Z AUTO 17004KT 7SM BKN013 OVC019 26/26 A2987 RMK AO2 T02620256
KELA 240835Z AUTO 16005KT 10SM BKN013 BKN018 BKN027 26/26 A2988 RMK AO2 T02630256
KELA 240815Z AUTO 17006KT 10SM BKN015 BKN027 BKN032 26/26 A2988 RMK AO2 T02630257
KELA 240755Z AUTO 18005KT 7SM SCT013 BKN018 OVC033 26/26 A2989 RMK AO2 T02620256
KELA 240735Z AUTO 17006KT 7SM SCT013 BKN023 BKN030 26/26 A2989 RMK AO2 T02620256
KELA 240715Z AUTO 17006KT 7SM BKN011 BKN018 OVC032 26/26 A2989 RMK AO2 T02640257
KELA 240655Z AUTO 17006KT 10SM BKN013 BKN019 OVC032 27/26 A2989 RMK AO2 T02660258
KELA 240635Z AUTO 16006KT 10SM BKN013 OVC020 27/26 A2989 RMK AO2 T02660259
KELA 240615Z AUTO 17005KT 10SM BKN011 OVC014 27/26 A2989 RMK AO2 T02660260
KELA 240555Z AUTO 17004KT 10SM BKN011 BKN016 OVC028 27/26 A2989 RMK AO2 T02650260 10310 20262 403400241
KELA 240535Z AUTO 16005KT 10SM BKN013 OVC028 26/26 A2988 RMK AO2 LTG DSNT N T02640257
KELA 240515Z AUTO 17004KT 7SM BKN013 BKN017 BKN024 26/26 A2987 RMK AO2 T02630257
KELA 240455Z AUTO 18005KT 7SM SCT013 SCT025 26/26 A2986 RMK AO2 T02630256
KELA 240435Z AUTO 17006KT 10SM BKN022 27/26 A2986 RMK AO2 T02650257
KELA 240415Z AUTO 17007KT 10SM SCT016 OVC022 27/26 A2985 RMK AO2 T02670258
KELA 240355Z AUTO 17007KT 10SM SCT016 SCT022 27/26 A2984 RMK AO2 T02660256
KELA 240335Z AUTO 16007KT 10SM SCT016 SCT022 27/26 A2984 RMK AO2 T02680256
KELA 240315Z AUTO 16008KT 10SM CLR 27/26 A2983 RMK AO2 T02700256
KELA 240255Z AUTO 17009KT 10SM CLR 27/26 A2982 RMK AO2 T02710257
KELA 240235Z AUTO 16008KT 10SM CLR 27/26 A2982 RMK AO2 T02720256
KELA 240215Z AUTO 16008KT 10SM CLR 28/26 A2981 RMK AO2 T02760255
KELA 240155Z AUTO 17010KT 10SM CLR 28/25 A2981 RMK AO2 T02810254
KELA 240135Z AUTO 17012G17KT 10SM SCT034 SCT041 28/26 A2980 RMK AO2 T02840255
KELA 240115Z AUTO 17010KT 10SM SCT028 SCT034 SCT041 29/25 A2981 RMK AO2 T02890253
KELA 240055Z AUTO 17013G16KT 10SM BKN026 BKN039 30/25 A2980 RMK AO2 T02970250
KELA 240035Z AUTO 17009KT 10SM SCT026 31/25 A2980 RMK AO2 T03050252
KELA 240015Z AUTO 17012KT 10SM CLR 30/25 A2980 RMK AO2 T03040246
KELA 232355Z AUTO 17011G17KT 10SM SCT035 SCT041 31/25 A2980 RMK AO2 T03060248 10340 20304
KELA 232335Z AUTO 16014G21KT 10SM SCT035 32/25 A2980 RMK AO2 T03170248
KELA 232315Z AUTO 17010G16KT 10SM SCT035 32/24 A2980 RMK AO2 T03160243
KELA 232255Z AUTO 17010G19KT 10SM SCT035 33/24 A2980 RMK AO2 T03290243
KELA 232235Z AUTO 17011G17KT 10SM CLR 33/24 A2981 RMK AO2 T03250239
KELA 232215Z AUTO 18010G19KT 10SM CLR 33/24 A2981 RMK AO2 T03280242
KELA 232155Z AUTO 17016KT 10SM SCT038 SCT046 33/24 A2981 RMK AO2 T03260242
KELA 232135Z AUTO 16014G17KT 10SM SCT038 SCT046 34/24 A2982 RMK AO2 T03350244
KELA 232115Z AUTO 16013KT 10SM SCT046 34/24 A2982 RMK AO2 T03350241
KELA 232055Z AUTO 19014G17KT 10SM CLR 33/24 A2982 RMK AO2 T03330239
KELA 232035Z AUTO 18013G20KT 10SM SCT038 SCT048 SCT055 33/24 A2983 RMK AO2 T03300243
KELA 232015Z AUTO 18013G18KT 10SM SCT038 SCT050 34/25 A2983 RMK AO2 T03390245
KELA 231955Z AUTO 17014G17KT 10SM SCT040 SCT050 34/24 A2984 RMK AO2 T03380242
KELA 231935Z AUTO 19012G16KT 10SM SCT036 BKN050 33/24 A2984 RMK AO2 T03330244
KELA 231915Z AUTO 19011G19KT 10SM SCT033 BKN048 BKN055 33/25 A2985 RMK AO2 T03270249
KELA 231855Z AUTO 19011G17KT 10SM BKN033 BKN042 OVC050 32/26 A2985 RMK AO2 T03230255
KELA 231835Z AUTO 19013G18KT 10SM SCT033 SCT040 BKN050 32/25 A2986 RMK AO2 T03240252
KELA 231815Z AUTO 18013G18KT 10SM SCT033 SCT046 SCT050 34/26 A2986 RMK AO2 T03360257
KELA 231755Z AUTO 17011G16KT 10SM SCT033 33/25 A2987 RMK AO2 T03320250 10332 20245
KELA 231735Z AUTO 19011G17KT 10SM SCT033 SCT041 33/25 A2988 RMK AO2 T03270247
KELA 231715Z AUTO 22010G15KT 10SM SCT033 SCT041 SCT047 32/24 A2988 RMK AO2 T03200244
KELA 231655Z AUTO 20013KT 10SM SCT030 SCT034 33/25 A2988 RMK AO2 T03270249
KELA 231635Z AUTO 21012G17KT 10SM SCT028 32/25 A2988 RMK AO2 T03240249
KELA 231615Z AUTO 21011G17KT 10SM SCT026 SCT032 32/25 A2987 RMK AO2 T03160250
KELA 231555Z AUTO 21014G18KT 10SM CLR 31/25 A2988 RMK AO2 T03110252
KELA 231535Z AUTO 22012G17KT 10SM SCT021 SCT028 SCT039 31/26 A2988 RMK AO2 T03050255
KELA 231515Z AUTO 21009G15KT 10SM SCT019 SCT030 SCT036 30/26 A2989 RMK AO2 T03030255
KELA 231455Z AUTO 21008KT 10SM BKN015 BKN023 OVC032 30/26 A2989 RMK AO2 T03030259
KELA 231435Z AUTO 20009G15KT 10SM OVC015 29/26 A2989 RMK AO2 T02910257
KELA 231415Z AUTO 19007KT 10SM OVC010 28/26 A2989 RMK AO2 T02800257
KELA 231355Z AUTO 20009KT 10SM OVC010 27/26 A2988 RMK AO2 T02710256
KELA 231335Z AUTO 18006KT 10SM SCT006 BKN010 OVC018 27/26 A2987 RMK AO2 T02650255
KELA 231315Z AUTO 18007KT 10SM BKN004 OVC018 26/26 A2987 RMK AO2 T02600255
KELA 231255Z AUTO 17006KT 7SM BKN002 BKN009 BKN016 26/25 A2986 RMK AO2 T02550253
KELA 231235Z AUTO 15004KT 5SM BR BKN002 BKN009 OVC019 25/25 A2986 RMK AO2 T02510250
KELA 231215Z AUTO 16003KT 4SM BR SCT002 BKN015 OVC021 25/25 A2986 RMK AO2 T02470246
KELA 231155Z AUTO 15003KT 4SM BR SCT002 BKN014 OVC021 25/24 A2986 RMK AO2 T02450243 10257 20241
KELA 231135Z AUTO 00000KT 4SM BR BKN004 BKN021 24/24 A2986 RMK AO2 T02410240
KELA 231115Z AUTO 15003KT 5SM BR BKN004 BKN007 BKN021 24/24 A2985 RMK AO2 T02420240
KELA 231055Z AUTO 16003KT 7SM BKN004 BKN011 OVC019 25/24 A2985 RMK AO2 T02450242
KELA 231035Z AUTO 16004KT 7SM SCT006 SCT011 OVC017 25/25 A2985 RMK AO2 T02460245
KELA 231015Z AUTO 15003KT 7SM OVC017 25/25 A2985 RMK AO2 T02460245
KELA 230955Z AUTO 17004KT 7SM OVC015 25/25 A2984 RMK AO2 T02460245
KELA 230935Z AUTO 15004KT 7SM OVC013 25/24 A2985 RMK AO2 T02460243
KELA 230915Z AUTO 00000KT 7SM OVC013 25/25 A2984 RMK AO2 T02470245
KELA 230855Z AUTO 15003KT 7SM OVC013 25/24 A2984 RMK AO2 T02460243